createdAt,value
2022-08-05T00:00:16.245Z,1007.16
2022-08-05T00:00:50.432Z,1007.06
2022-08-05T00:01:27.691Z,1006.92
2022-08-05T00:02:07.774Z,1006.81
2022-08-05T00:02:35.489Z,1006.76
2022-08-05T00:03:15.403Z,1006.76
2022-08-05T00:03:46.077Z,1006.86
2022-08-05T00:04:21.486Z,1006.91
2022-08-05T00:04:56.509Z,1007.07
2022-08-05T00:06:06.539Z,1007.18
2022-08-05T00:06:27.876Z,1007.20
2022-08-05T00:06:41.928Z,1007.23
2022-08-05T00:07:59.068Z,1007.24
2022-08-05T00:08:00.621Z,1007.22
2022-08-05T00:08:34.497Z,1007.26
2022-08-05T00:09:02.568Z,1007.20
2022-08-05T00:09:37.564Z,1007.22
2022-08-05T00:10:13.183Z,1007.20
2022-08-05T00:10:48.546Z,1007.17
2022-08-05T00:11:30.187Z,1007.19
2022-08-05T00:11:59.797Z,1007.18
2022-08-05T00:12:34.461Z,1007.15
2022-08-05T00:13:09.772Z,1007.17
2022-08-05T00:13:45.162Z,1007.13
2022-08-05T00:14:20.810Z,1007.12
2022-08-05T00:14:56.252Z,1007.13
2022-08-05T00:15:58.024Z,1007.10
2022-08-05T00:16:06.655Z,1007.15
2022-08-05T00:16:52.743Z,1007.13
2022-08-05T00:17:19.443Z,1007.19
2022-08-05T00:17:52.552Z,1007.18
2022-08-05T00:18:27.682Z,1007.20
2022-08-05T00:19:03.220Z,1007.22
2022-08-05T00:19:44.058Z,1007.21
2022-08-05T00:20:14.147Z,1007.21
2022-08-05T00:20:49.346Z,1007.22
2022-08-05T00:21:24.567Z,1007.25
2022-08-05T00:21:59.882Z,1007.18
2022-08-05T00:22:34.974Z,1007.20
2022-08-05T00:23:13.017Z,1007.18
2022-08-05T00:23:53.410Z,1007.18
2022-08-05T00:24:24.603Z,1007.17
2022-08-05T00:24:55.574Z,1007.16
2022-08-05T00:25:45.573Z,1007.14
2022-08-05T00:26:05.999Z,1007.13
2022-08-05T00:26:50.637Z,1007.16
2022-08-05T00:27:16.991Z,1007.17
2022-08-05T00:27:51.775Z,1007.17
2022-08-05T00:28:29.707Z,1007.10
2022-08-05T00:29:02.423Z,1007.14
2022-08-05T00:29:38.391Z,1007.06
2022-08-05T00:30:13.576Z,1007.06
2022-08-05T00:30:52.087Z,1007.07
2022-08-05T00:31:54.035Z,1007.06
2022-08-05T00:32:13.294Z,1007.04
2022-08-05T00:32:34.789Z,1007.05
2022-08-05T00:34:41.949Z,1007.02
2022-08-05T00:34:53.628Z,1007.02
2022-08-05T00:34:56.994Z,1007.06
2022-08-05T00:35:06.683Z,1007.07
2022-08-05T00:35:33.215Z,1007.05
2022-08-05T00:36:14.917Z,1007.05
2022-08-05T00:37:13.040Z,1007.07
2022-08-05T00:37:16.963Z,1007.08
2022-08-05T00:37:53.808Z,1007.12
2022-08-05T00:38:28.652Z,1007.13
2022-08-05T00:39:03.341Z,1007.17
2022-08-05T00:39:41.614Z,1007.18
2022-08-05T00:40:13.809Z,1007.20
2022-08-05T00:40:53.187Z,1007.19
2022-08-05T00:41:24.216Z,1007.19
2022-08-05T00:41:59.448Z,1007.15
2022-08-05T00:42:34.779Z,1007.14
2022-08-05T00:43:09.893Z,1007.12
2022-08-05T00:43:49.644Z,1007.06
2022-08-05T00:44:20.897Z,1007.06
2022-08-05T00:44:55.661Z,1007.01
2022-08-05T00:45:38.887Z,1006.98
2022-08-05T00:46:06.072Z,1006.99
2022-08-05T00:46:43.395Z,1006.93
2022-08-05T00:47:16.892Z,1006.95
2022-08-05T00:47:56.886Z,1006.95
2022-08-05T00:48:27.527Z,1006.96
2022-08-05T00:49:02.410Z,1006.97
2022-08-05T00:49:44.581Z,1007.01
2022-08-05T00:50:12.749Z,1007.03
2022-08-05T00:50:48.069Z,1007.04
2022-08-05T00:51:51.945Z,1007.05
2022-08-05T00:51:58.621Z,1007.10
2022-08-05T00:52:33.947Z,1007.10
2022-08-05T00:54:00.396Z,1007.12
2022-08-05T00:54:02.279Z,1007.13
2022-08-05T00:54:20.389Z,1007.19
2022-08-05T00:54:56.235Z,1007.21
2022-08-05T00:55:34.181Z,1007.20
2022-08-05T00:56:08.026Z,1007.18
2022-08-05T00:56:42.072Z,1007.19
2022-08-05T00:57:17.718Z,1007.17
2022-08-05T00:57:58.812Z,1007.15
2022-08-05T00:58:28.145Z,1007.19
2022-08-05T00:59:04.081Z,1007.15
2022-08-05T00:59:44.612Z,1007.18
2022-08-05T01:00:14.437Z,1007.15
2022-08-05T01:00:50.176Z,1007.14
2022-08-05T01:01:42.904Z,1007.10
2022-08-05T01:02:00.150Z,1007.10
2022-08-05T01:02:35.240Z,1007.11
2022-08-05T01:03:10.343Z,1007.08
2022-08-05T01:03:45.478Z,1007.10
2022-08-05T01:04:26.856Z,1007.12
2022-08-05T01:04:55.526Z,1007.12
2022-08-05T01:05:30.739Z,1007.08
2022-08-05T01:06:06.188Z,1007.08
2022-08-05T01:06:41.402Z,1007.07
2022-08-05T01:07:31.606Z,1007.08
2022-08-05T01:08:39.839Z,1007.13
2022-08-05T01:08:40.761Z,1007.15
2022-08-05T01:09:03.097Z,1007.22
2022-08-05T01:09:37.959Z,1007.26
2022-08-05T01:10:13.188Z,1007.26
2022-08-05T01:10:52.205Z,1007.28
2022-08-05T01:11:33.429Z,1007.32
2022-08-05T01:12:04.515Z,1007.30
2022-08-05T01:12:34.497Z,1007.31
2022-08-05T01:13:13.330Z,1007.32
2022-08-05T01:13:58.765Z,1007.33
2022-08-05T01:14:28.001Z,1007.33
2022-08-05T01:14:55.243Z,1007.31
2022-08-05T01:15:36.119Z,1007.38
2022-08-05T01:16:05.780Z,1007.37
2022-08-05T01:16:41.204Z,1007.41
2022-08-05T01:17:16.428Z,1007.39
2022-08-05T01:17:53.690Z,1007.41
2022-08-05T01:18:27.521Z,1007.44
2022-08-05T01:19:02.157Z,1007.46
2022-08-05T01:20:01.160Z,1007.46
2022-08-05T01:20:12.813Z,1007.50
2022-08-05T01:20:48.042Z,1007.50
2022-08-05T01:21:23.479Z,1007.50
2022-08-05T01:21:58.867Z,1007.54
2022-08-05T01:22:34.471Z,1007.54
2022-08-05T01:23:15.066Z,1007.53
2022-08-05T01:23:44.897Z,1007.55
2022-08-05T01:24:20.212Z,1007.56
2022-08-05T01:24:55.361Z,1007.58
2022-08-05T01:25:40.793Z,1007.60
2022-08-05T01:26:05.826Z,1007.63
2022-08-05T01:26:41.568Z,1007.64
2022-08-05T01:27:19.297Z,1007.62
2022-08-05T01:27:55.672Z,1007.63
2022-08-05T01:28:27.493Z,1007.65
2022-08-05T01:29:05.122Z,1007.67
2022-08-05T01:29:38.064Z,1007.69
2022-08-05T01:30:18.670Z,1007.69
2022-08-05T01:30:53.849Z,1007.66
2022-08-05T01:31:23.982Z,1007.64
2022-08-05T01:31:59.306Z,1007.68
2022-08-05T01:32:34.223Z,1007.66
2022-08-05T01:33:09.540Z,1007.64
2022-08-05T01:33:49.239Z,1007.67
2022-08-05T01:34:20.080Z,1007.70
2022-08-05T01:34:55.072Z,1007.65
2022-08-05T01:35:51.805Z,1007.70
2022-08-05T01:36:05.686Z,1007.66
2022-08-05T01:36:42.356Z,1007.69
2022-08-05T01:37:24.677Z,1007.63
2022-08-05T01:37:51.631Z,1007.66
2022-08-05T01:38:30.031Z,1007.61
2022-08-05T01:39:02.116Z,1007.67
2022-08-05T01:39:47.130Z,1007.68
2022-08-05T01:40:12.603Z,1007.66
2022-08-05T01:40:47.931Z,1007.67
2022-08-05T01:41:25.588Z,1007.70
2022-08-05T01:41:58.852Z,1007.71
2022-08-05T01:42:34.207Z,1007.69
2022-08-05T01:43:09.423Z,1007.70
2022-08-05T01:43:44.798Z,1007.72
2022-08-05T01:44:19.816Z,1007.73
2022-08-05T01:44:55.223Z,1007.71
2022-08-05T01:45:34.906Z,1007.74
2022-08-05T01:46:07.228Z,1007.73
2022-08-05T01:46:42.332Z,1007.75
2022-08-05T01:47:16.761Z,1007.77
2022-08-05T01:47:54.456Z,1007.75
2022-08-05T01:48:26.990Z,1007.73
2022-08-05T01:49:01.884Z,1007.79
2022-08-05T01:50:00.253Z,1007.75
2022-08-05T01:50:15.546Z,1007.79
2022-08-05T01:50:51.005Z,1007.78
2022-08-05T01:51:22.730Z,1007.77
2022-08-05T01:51:58.295Z,1007.74
2022-08-05T01:52:33.150Z,1007.76
2022-08-05T01:53:08.561Z,1007.74
2022-08-05T01:53:57.401Z,1007.75
2022-08-05T01:54:19.493Z,1007.71
2022-08-05T01:54:54.800Z,1007.74
2022-08-05T01:55:30.020Z,1007.71
2022-08-05T01:56:05.229Z,1007.69
2022-08-05T01:58:10.896Z,1007.73
2022-08-05T01:58:11.439Z,1007.75
2022-08-05T01:58:13.194Z,1007.79
2022-08-05T01:58:40.331Z,1007.72
2022-08-05T01:59:01.285Z,1007.74
2022-08-05T01:59:36.709Z,1007.72
2022-08-05T02:00:12.312Z,1007.73
2022-08-05T02:00:47.023Z,1007.68
2022-08-05T02:01:25.297Z,1007.70
2022-08-05T02:01:57.770Z,1007.71
2022-08-05T02:02:32.895Z,1007.68
2022-08-05T02:03:24.300Z,1007.68
2022-08-05T02:03:43.592Z,1007.66
2022-08-05T02:04:18.913Z,1007.70
2022-08-05T02:04:53.934Z,1007.72
2022-08-05T02:05:29.343Z,1007.72
2022-08-05T02:06:23.995Z,1007.72
2022-08-05T02:06:40.378Z,1007.72
2022-08-05T02:07:22.014Z,1007.69
2022-08-05T02:08:00.262Z,1007.70
2022-08-05T02:08:31.265Z,1007.70
2022-08-05T02:09:00.945Z,1007.69
2022-08-05T02:09:35.859Z,1007.70
2022-08-05T02:10:11.455Z,1007.72
2022-08-05T02:10:46.572Z,1007.70
2022-08-05T02:11:24.048Z,1007.70
2022-08-05T02:11:57.114Z,1007.76
2022-08-05T02:12:32.775Z,1007.75
2022-08-05T02:13:16.088Z,1007.75
2022-08-05T02:13:53.232Z,1007.75
2022-08-05T02:14:18.432Z,1007.75
2022-08-05T02:14:53.538Z,1007.70
2022-08-05T02:15:33.477Z,1007.69
2022-08-05T02:16:04.347Z,1007.68
2022-08-05T02:16:39.772Z,1007.63
2022-08-05T02:17:16.875Z,1007.64
2022-08-05T02:18:28.825Z,1007.59
2022-08-05T02:18:33.297Z,1007.63
2022-08-05T02:19:00.977Z,1007.58
2022-08-05T02:19:36.285Z,1007.60
2022-08-05T02:20:11.595Z,1007.61
2022-08-05T02:20:46.969Z,1007.63
2022-08-05T02:21:21.945Z,1007.65
2022-08-05T02:21:57.160Z,1007.66
2022-08-05T02:22:32.363Z,1007.71
2022-08-05T02:23:08.707Z,1007.71
2022-08-05T02:23:42.787Z,1007.74
2022-08-05T02:24:18.088Z,1007.73
2022-08-05T02:24:53.332Z,1007.74
2022-08-05T02:25:32.996Z,1007.76
2022-08-05T02:26:04.250Z,1007.77
2022-08-05T02:26:39.369Z,1007.76
2022-08-05T02:27:14.637Z,1007.79
2022-08-05T02:27:59.172Z,1007.77
2022-08-05T02:28:29.307Z,1007.82
2022-08-05T02:29:00.665Z,1007.83
2022-08-05T02:29:59.642Z,1007.80
2022-08-05T02:30:11.100Z,1007.82
2022-08-05T02:30:54.295Z,1007.83
2022-08-05T02:31:21.890Z,1007.82
2022-08-05T02:31:57.401Z,1007.77
2022-08-05T02:32:32.931Z,1007.76
2022-08-05T02:33:08.033Z,1007.79
2022-08-05T02:33:43.572Z,1007.80
2022-08-05T02:34:19.212Z,1007.77
2022-08-05T02:34:55.226Z,1007.85
2022-08-05T02:35:37.533Z,1007.88
2022-08-05T02:36:05.365Z,1007.90
2022-08-05T02:36:40.467Z,1007.90
2022-08-05T02:37:15.877Z,1007.94
2022-08-05T02:37:53.899Z,1007.95
2022-08-05T02:38:27.053Z,1008.00
2022-08-05T02:39:01.516Z,1007.99
2022-08-05T02:39:36.754Z,1008.00
2022-08-05T02:40:11.826Z,1007.98
2022-08-05T02:40:47.558Z,1007.97
2022-08-05T02:41:22.925Z,1007.99
2022-08-05T02:41:57.848Z,1008.00
2022-08-05T02:42:36.136Z,1007.98
2022-08-05T02:43:08.039Z,1007.95
2022-08-05T02:44:06.804Z,1007.97
2022-08-05T02:44:18.457Z,1007.94
2022-08-05T02:44:53.686Z,1007.96
2022-08-05T02:45:28.811Z,1007.96
2022-08-05T02:46:03.912Z,1007.99
2022-08-05T02:46:53.570Z,1008.00
2022-08-05T02:47:14.633Z,1008.02
2022-08-05T02:47:58.611Z,1008.02
2022-08-05T02:48:29.329Z,1008.06
2022-08-05T02:48:59.987Z,1008.06
2022-08-05T02:49:37.019Z,1008.08
2022-08-05T02:50:10.511Z,1008.12
2022-08-05T02:50:46.044Z,1008.12
2022-08-05T02:51:28.268Z,1008.15
2022-08-05T02:52:03.556Z,1008.18
2022-08-05T02:52:31.791Z,1008.20
2022-08-05T02:53:07.080Z,1008.18
2022-08-05T02:53:42.305Z,1008.20
2022-08-05T02:54:34.766Z,1008.21
2022-08-05T02:54:52.909Z,1008.21
2022-08-05T02:55:55.289Z,1008.19
2022-08-05T02:56:03.464Z,1008.17
2022-08-05T02:56:38.582Z,1008.17
2022-08-05T02:58:10.840Z,1008.14
2022-08-05T02:58:20.178Z,1008.17
2022-08-05T02:58:26.856Z,1008.11
2022-08-05T02:58:59.848Z,1008.13
2022-08-05T02:59:50.356Z,1008.12
2022-08-05T03:00:10.578Z,1008.13
2022-08-05T03:00:46.094Z,1008.10
2022-08-05T03:01:21.403Z,1008.10
2022-08-05T03:01:56.614Z,1008.11
2022-08-05T03:02:31.589Z,1008.11
2022-08-05T03:03:07.618Z,1008.10
2022-08-05T03:04:03.251Z,1008.08
2022-08-05T03:04:17.251Z,1008.07
2022-08-05T03:04:53.139Z,1008.13
2022-08-05T03:06:53.645Z,1008.10
2022-08-05T03:06:54.362Z,1008.07
2022-08-05T03:06:54.659Z,1008.09
2022-08-05T03:07:40.462Z,1008.17
2022-08-05T03:08:07.165Z,1008.12
2022-08-05T03:08:29.632Z,1008.13
2022-08-05T03:08:59.621Z,1008.16
2022-08-05T03:09:37.619Z,1008.16
2022-08-05T03:10:10.142Z,1008.20
2022-08-05T03:11:53.727Z,1008.20
2022-08-05T03:11:56.392Z,1008.23
2022-08-05T03:11:58.211Z,1008.23
2022-08-05T03:12:31.169Z,1008.23
2022-08-05T03:13:27.757Z,1008.22
2022-08-05T03:14:04.092Z,1008.19
2022-08-05T03:14:40.892Z,1008.16
2022-08-05T03:15:13.259Z,1008.16
2022-08-05T03:15:48.643Z,1008.16
2022-08-05T03:16:23.899Z,1008.14
2022-08-05T03:16:59.225Z,1008.15
2022-08-05T03:17:34.339Z,1008.14
2022-08-05T03:18:09.541Z,1008.16
2022-08-05T03:18:45.063Z,1008.16
2022-08-05T03:19:33.728Z,1008.18
2022-08-05T03:19:55.921Z,1008.21
2022-08-05T03:20:31.358Z,1008.25
2022-08-05T03:21:06.934Z,1008.23
2022-08-05T03:21:48.673Z,1008.26
2022-08-05T03:22:19.065Z,1008.29
2022-08-05T03:22:52.733Z,1008.25
2022-08-05T03:23:27.859Z,1008.26
2022-08-05T03:24:03.073Z,1008.28
2022-08-05T03:24:38.611Z,1008.25
2022-08-05T03:25:33.241Z,1008.24
2022-08-05T03:26:04.267Z,1008.23
2022-08-05T03:26:31.844Z,1008.23
2022-08-05T03:26:59.219Z,1008.23
2022-08-05T03:27:39.362Z,1008.22
2022-08-05T03:28:09.868Z,1008.24
2022-08-05T03:28:45.087Z,1008.21
2022-08-05T03:29:20.591Z,1008.19
2022-08-05T03:30:07.757Z,1008.19
2022-08-05T03:30:34.125Z,1008.20
2022-08-05T03:31:06.572Z,1008.16
2022-08-05T03:31:55.780Z,1008.11
2022-08-05T03:32:16.856Z,1008.09
2022-08-05T03:32:52.413Z,1008.04
2022-08-05T03:33:42.193Z,1008.03
2022-08-05T03:34:02.953Z,1008.05
2022-08-05T03:34:37.980Z,1007.99
2022-08-05T03:35:13.398Z,1008.01
2022-08-05T03:35:48.509Z,1008.06
2022-08-05T03:36:30.329Z,1008.04
2022-08-05T03:36:59.483Z,1008.08
2022-08-05T03:37:40.976Z,1008.08
2022-08-05T03:38:10.219Z,1008.12
2022-08-05T03:38:53.203Z,1008.11
2022-08-05T03:39:26.838Z,1008.11
2022-08-05T03:39:58.618Z,1008.10
2022-08-05T03:40:32.550Z,1008.09
2022-08-05T03:41:10.717Z,1008.11
2022-08-05T03:41:45.376Z,1008.07
2022-08-05T03:42:17.399Z,1008.04
2022-08-05T03:42:52.918Z,1008.04
2022-08-05T03:44:10.017Z,1008.02
2022-08-05T03:44:11.398Z,1008.01
2022-08-05T03:44:38.003Z,1008.01
2022-08-05T03:45:22.144Z,1007.96
2022-08-05T03:45:58.315Z,1007.98
2022-08-05T03:46:23.657Z,1007.98
2022-08-05T03:46:58.866Z,1007.95
2022-08-05T03:47:35.549Z,1007.98
2022-08-05T03:48:09.325Z,1007.99
2022-08-05T03:48:45.403Z,1007.98
2022-08-05T03:49:19.952Z,1007.97
2022-08-05T03:49:55.166Z,1007.98
2022-08-05T03:50:30.374Z,1007.93
2022-08-05T03:52:48.889Z,1007.88
2022-08-05T03:52:49.193Z,1007.92
2022-08-05T03:52:50.440Z,1007.92
2022-08-05T03:55:49.808Z,1007.90
2022-08-05T03:55:53.700Z,1007.90
2022-08-05T03:55:53.788Z,1007.88
2022-08-05T03:56:01.437Z,1007.91
2022-08-05T03:56:05.325Z,1007.88
2022-08-05T03:56:05.427Z,1007.85
2022-08-05T03:56:33.070Z,1007.85
2022-08-05T03:57:00.059Z,1007.82
2022-08-05T03:57:42.504Z,1007.83
2022-08-05T03:58:09.732Z,1007.84
2022-08-05T03:58:45.057Z,1007.84
2022-08-05T03:59:20.668Z,1007.86
2022-08-05T03:59:55.897Z,1007.86
2022-08-05T04:00:30.788Z,1007.86
2022-08-05T04:01:05.951Z,1007.88
2022-08-05T04:01:41.385Z,1007.85
2022-08-05T04:02:17.533Z,1007.82
2022-08-05T04:02:58.407Z,1007.80
2022-08-05T04:03:28.690Z,1007.74
2022-08-05T04:04:10.190Z,1007.74
2022-08-05T04:04:38.175Z,1007.72
2022-08-05T04:05:13.493Z,1007.71
2022-08-05T04:05:48.812Z,1007.73
2022-08-05T04:06:23.929Z,1007.68
2022-08-05T04:06:59.062Z,1007.69
2022-08-05T04:07:34.683Z,1007.65
2022-08-05T04:08:14.819Z,1007.65
2022-08-05T04:08:44.931Z,1007.63
2022-08-05T04:09:26.325Z,1007.61
2022-08-05T04:09:55.573Z,1007.58
2022-08-05T04:10:37.556Z,1007.54
2022-08-05T04:11:06.003Z,1007.53
2022-08-05T04:11:50.619Z,1007.50
2022-08-05T04:12:24.488Z,1007.48
2022-08-05T04:12:52.247Z,1007.48
2022-08-05T04:13:49.347Z,1007.43
2022-08-05T04:14:02.592Z,1007.42
2022-08-05T04:14:37.820Z,1007.37
2022-08-05T04:15:15.563Z,1007.33
2022-08-05T04:15:52.692Z,1007.30
2022-08-05T04:16:24.948Z,1007.23
2022-08-05T04:16:58.606Z,1007.14
2022-08-05T04:17:55.689Z,1007.08
2022-08-05T04:18:09.753Z,1006.99
2022-08-05T04:18:44.168Z,1006.90
2022-08-05T04:19:19.262Z,1006.82
2022-08-05T04:19:57.221Z,1006.71
2022-08-05T04:20:29.409Z,1006.70
2022-08-05T04:21:04.930Z,1006.64
2022-08-05T04:22:09.624Z,1006.55
2022-08-05T04:22:15.063Z,1006.51
2022-08-05T04:22:50.581Z,1006.45
2022-08-05T04:24:05.163Z,1006.41
2022-08-05T04:24:06.764Z,1006.35
2022-08-05T04:24:36.847Z,1006.31
2022-08-05T04:25:12.062Z,1006.31
2022-08-05T04:26:00.606Z,1006.31
2022-08-05T04:26:22.695Z,1006.36
2022-08-05T04:26:58.254Z,1006.39
2022-08-05T04:27:43.937Z,1006.48
2022-08-05T04:28:11.304Z,1006.61
2022-08-05T04:28:51.328Z,1006.87
2022-08-05T04:29:19.094Z,1007.00
2022-08-05T04:29:54.918Z,1007.16
2022-08-05T04:30:30.121Z,1007.28
2022-08-05T04:31:10.471Z,1007.36
2022-08-05T04:31:40.649Z,1007.38
2022-08-05T04:32:30.610Z,1007.38
2022-08-05T04:32:51.197Z,1007.39
2022-08-05T04:33:54.499Z,1007.41
2022-08-05T04:34:31.320Z,1007.40
2022-08-05T04:34:42.347Z,1007.40
2022-08-05T04:35:13.510Z,1007.44
2022-08-05T04:36:11.394Z,1007.44
2022-08-05T04:36:46.088Z,1007.45
2022-08-05T04:36:57.931Z,1007.45
2022-08-05T04:38:02.976Z,1007.42
2022-08-05T04:38:08.762Z,1007.39
2022-08-05T04:38:43.774Z,1007.44
2022-08-05T04:39:19.082Z,1007.39
2022-08-05T04:39:55.687Z,1007.44
2022-08-05T04:40:29.554Z,1007.42
2022-08-05T04:41:04.658Z,1007.39
2022-08-05T04:41:40.358Z,1007.36
2022-08-05T04:42:15.566Z,1007.30
2022-08-05T04:42:50.996Z,1007.33
2022-08-05T04:43:26.022Z,1007.31
2022-08-05T04:44:01.530Z,1007.28
2022-08-05T04:44:36.684Z,1007.33
2022-08-05T04:45:12.163Z,1007.34
2022-08-05T04:45:48.468Z,1007.38
2022-08-05T04:46:27.977Z,1007.39
2022-08-05T04:46:58.345Z,1007.45
2022-08-05T04:47:38.660Z,1007.47
2022-08-05T04:48:16.383Z,1007.48
2022-08-05T04:48:43.708Z,1007.54
2022-08-05T04:49:18.995Z,1007.60
2022-08-05T04:50:02.801Z,1007.68
2022-08-05T04:50:37.139Z,1007.66
2022-08-05T04:51:11.430Z,1007.72
2022-08-05T04:51:40.219Z,1007.72
2022-08-05T04:52:15.341Z,1007.79
2022-08-05T04:52:50.675Z,1007.79
2022-08-05T04:53:25.874Z,1007.81
2022-08-05T04:54:01.380Z,1007.91
2022-08-05T04:54:36.345Z,1007.93
2022-08-05T04:55:14.471Z,1007.92
2022-08-05T04:56:15.322Z,1007.97
2022-08-05T04:56:33.596Z,1007.95
2022-08-05T04:56:59.024Z,1007.98
2022-08-05T04:57:37.121Z,1008.00
2022-08-05T04:58:07.761Z,1008.01
2022-08-05T04:58:43.074Z,1008.04
2022-08-05T04:59:23.983Z,1008.06
2022-08-05T04:59:53.539Z,1008.06
2022-08-05T05:00:28.532Z,1008.11
2022-08-05T05:01:03.680Z,1008.09
2022-08-05T05:02:35.240Z,1008.08
2022-08-05T05:02:37.539Z,1008.07
2022-08-05T05:02:49.276Z,1008.07
2022-08-05T05:03:24.455Z,1008.11
2022-08-05T05:03:59.575Z,1008.10
2022-08-05T05:04:34.801Z,1008.07
2022-08-05T05:05:16.976Z,1008.08
2022-08-05T05:06:38.901Z,1008.06
2022-08-05T05:06:40.409Z,1008.06
2022-08-05T05:06:57.611Z,1008.05
2022-08-05T05:07:32.491Z,1007.98
2022-08-05T05:08:06.340Z,1007.97
2022-08-05T05:08:42.742Z,1007.96
2022-08-05T05:09:17.383Z,1007.96
2022-08-05T05:09:52.204Z,1007.97
2022-08-05T05:10:27.617Z,1007.98
2022-08-05T05:11:03.029Z,1007.95
2022-08-05T05:11:52.804Z,1008.01
2022-08-05T05:12:13.541Z,1008.06
2022-08-05T05:12:50.566Z,1008.03
2022-08-05T05:13:32.458Z,1008.06
2022-08-05T05:14:06.317Z,1008.03
2022-08-05T05:14:49.282Z,1008.06
2022-08-05T05:15:17.347Z,1008.07
2022-08-05T05:15:56.405Z,1008.02
2022-08-05T05:16:30.356Z,1008.04
2022-08-05T05:17:03.399Z,1008.03
2022-08-05T05:17:57.142Z,1008.01
2022-08-05T05:18:13.751Z,1008.00
2022-08-05T05:19:09.214Z,1008.01
2022-08-05T05:19:27.361Z,1008.01
2022-08-05T05:19:59.320Z,1008.03
2022-08-05T05:20:34.831Z,1008.06
2022-08-05T05:21:10.060Z,1008.04
2022-08-05T05:21:46.393Z,1008.09
2022-08-05T05:22:24.049Z,1008.12
2022-08-05T05:22:55.938Z,1008.10
2022-08-05T05:23:39.339Z,1008.10
2022-08-05T05:24:08.898Z,1008.12
2022-08-05T05:24:58.647Z,1008.08
2022-08-05T05:25:17.520Z,1008.13
2022-08-05T05:25:52.136Z,1008.09
2022-08-05T05:26:28.768Z,1008.05
2022-08-05T05:27:02.496Z,1008.08
2022-08-05T05:27:41.664Z,1008.09
2022-08-05T05:28:12.855Z,1008.02
2022-08-05T05:28:48.054Z,1008.02
2022-08-05T05:29:23.267Z,1008.04
2022-08-05T05:30:04.950Z,1008.05
2022-08-05T05:30:33.754Z,1007.98
2022-08-05T05:31:09.066Z,1007.98
2022-08-05T05:31:46.526Z,1007.98
2022-08-05T05:32:19.572Z,1008.00
2022-08-05T05:32:54.596Z,1007.99
2022-08-05T05:33:29.695Z,1008.01
2022-08-05T05:34:04.902Z,1008.09
2022-08-05T05:34:40.108Z,1008.10
2022-08-05T05:35:19.871Z,1008.15
2022-08-05T05:35:50.845Z,1008.11
2022-08-05T05:36:28.724Z,1008.13
2022-08-05T05:37:01.172Z,1008.13
2022-08-05T05:37:37.421Z,1008.10
2022-08-05T05:38:13.592Z,1008.10
2022-08-05T05:38:46.822Z,1008.11
2022-08-05T05:39:21.982Z,1008.13
2022-08-05T05:39:57.139Z,1008.10
2022-08-05T05:40:32.479Z,1008.17
2022-08-05T05:41:07.759Z,1008.15
2022-08-05T05:41:42.822Z,1008.18
2022-08-05T05:42:18.346Z,1008.22
2022-08-05T05:42:53.461Z,1008.24
2022-08-05T05:43:58.031Z,1008.28
2022-08-05T05:44:03.906Z,1008.31
2022-08-05T05:44:43.115Z,1008.31
2022-08-05T05:45:14.513Z,1008.29
2022-08-05T05:45:50.035Z,1008.29
2022-08-05T05:46:25.154Z,1008.29
2022-08-05T05:47:04.195Z,1008.25
2022-08-05T05:48:06.224Z,1008.23
2022-08-05T05:48:10.989Z,1008.23
2022-08-05T05:48:47.949Z,1008.23
2022-08-05T05:49:23.026Z,1008.22
2022-08-05T05:50:01.435Z,1008.18
2022-08-05T05:50:31.914Z,1008.23
2022-08-05T05:51:15.444Z,1008.22
2022-08-05T05:51:49.911Z,1008.23
2022-08-05T05:52:28.453Z,1008.24
2022-08-05T05:52:53.718Z,1008.21
2022-08-05T05:53:28.843Z,1008.26
2022-08-05T05:54:03.962Z,1008.25
2022-08-05T05:54:50.097Z,1008.27
2022-08-05T05:55:14.600Z,1008.24
2022-08-05T05:55:52.311Z,1008.18
2022-08-05T05:56:31.404Z,1008.18
2022-08-05T05:57:00.041Z,1008.13
2022-08-05T05:57:51.976Z,1008.12
2022-08-05T05:58:10.578Z,1008.13
2022-08-05T05:58:45.693Z,1008.10
2022-08-05T05:59:20.908Z,1008.13
2022-08-05T05:59:56.201Z,1008.10
2022-08-05T06:00:31.757Z,1008.07
2022-08-05T06:01:12.619Z,1008.10
2022-08-05T06:01:57.799Z,1008.06
2022-08-05T06:02:17.118Z,1008.09
2022-08-05T06:02:52.845Z,1007.99
2022-08-05T06:03:54.094Z,1007.98
2022-08-05T06:04:03.815Z,1007.99
2022-08-05T06:04:38.719Z,1008.04
2022-08-05T06:05:16.385Z,1008.03
2022-08-05T06:05:54.032Z,1008.06
2022-08-05T06:06:24.541Z,1008.06
2022-08-05T06:07:01.631Z,1008.09
2022-08-05T06:07:42.139Z,1008.15
2022-08-05T06:08:10.493Z,1008.13
2022-08-05T06:08:49.187Z,1008.18
2022-08-05T06:09:25.911Z,1008.17
2022-08-05T06:10:04.558Z,1008.19
2022-08-05T06:10:36.295Z,1008.25
2022-08-05T06:11:07.218Z,1008.25
2022-08-05T06:11:42.633Z,1008.31
2022-08-05T06:12:17.952Z,1008.30
2022-08-05T06:12:53.570Z,1008.32
2022-08-05T06:13:29.071Z,1008.31
2022-08-05T06:14:04.603Z,1008.34
2022-08-05T06:14:40.248Z,1008.31
2022-08-05T06:15:23.958Z,1008.25
2022-08-05T06:16:29.202Z,1008.33
2022-08-05T06:16:30.230Z,1008.30
2022-08-05T06:17:02.275Z,1008.34
2022-08-05T06:17:52.847Z,1008.30
2022-08-05T06:18:11.615Z,1008.30
2022-08-05T06:18:46.828Z,1008.30
2022-08-05T06:19:26.076Z,1008.31
2022-08-05T06:19:59.522Z,1008.35
2022-08-05T06:20:32.761Z,1008.35
2022-08-05T06:21:16.596Z,1008.40
2022-08-05T06:21:49.605Z,1008.42
2022-08-05T06:22:18.565Z,1008.39
2022-08-05T06:22:53.709Z,1008.42
2022-08-05T06:23:32.020Z,1008.42
2022-08-05T06:24:04.233Z,1008.44
2022-08-05T06:24:39.443Z,1008.49
2022-08-05T06:25:59.388Z,1008.50
2022-08-05T06:26:13.743Z,1008.50
2022-08-05T06:26:25.483Z,1008.48
2022-08-05T06:27:00.889Z,1008.48
2022-08-05T06:28:11.173Z,1008.49
2022-08-05T06:28:21.115Z,1008.50
2022-08-05T06:28:46.581Z,1008.47
2022-08-05T06:29:25.286Z,1008.43
2022-08-05T06:30:04.483Z,1008.48
2022-08-05T06:30:32.212Z,1008.41
2022-08-05T06:31:11.094Z,1008.45
2022-08-05T06:31:42.632Z,1008.40
2022-08-05T06:32:26.217Z,1008.40
2022-08-05T06:32:53.484Z,1008.39
2022-08-05T06:34:00.450Z,1008.39
2022-08-05T06:34:07.072Z,1008.40
2022-08-05T06:34:39.334Z,1008.41
2022-08-05T06:35:21.621Z,1008.43
2022-08-05T06:36:05.758Z,1008.44
2022-08-05T06:36:26.047Z,1008.43
2022-08-05T06:37:00.212Z,1008.42
2022-08-05T06:37:57.480Z,1008.43
2022-08-05T06:38:11.640Z,1008.44
2022-08-05T06:38:47.003Z,1008.32
2022-08-05T06:39:21.873Z,1008.30
2022-08-05T06:39:56.105Z,1008.29
2022-08-05T06:40:32.604Z,1008.28
2022-08-05T06:41:08.252Z,1008.28
2022-08-05T06:41:41.934Z,1008.32
2022-08-05T06:42:17.564Z,1008.32
2022-08-05T06:42:52.962Z,1008.31
2022-08-05T06:43:58.405Z,1008.33
2022-08-05T06:44:03.245Z,1008.34
2022-08-05T06:44:38.446Z,1008.32
2022-08-05T06:45:21.060Z,1008.34
2022-08-05T06:46:06.837Z,1008.34
2022-08-05T06:46:29.660Z,1008.37
2022-08-05T06:46:59.816Z,1008.34
2022-08-05T06:48:36.410Z,1008.38
2022-08-05T06:48:36.869Z,1008.37
2022-08-05T06:48:55.562Z,1008.36
2022-08-05T06:49:21.134Z,1008.36
2022-08-05T06:50:01.758Z,1008.39
2022-08-05T06:50:31.081Z,1008.38
2022-08-05T06:51:09.302Z,1008.40
2022-08-05T06:51:42.096Z,1008.38
2022-08-05T06:52:36.732Z,1008.41
2022-08-05T06:53:03.708Z,1008.43
2022-08-05T06:53:28.357Z,1008.41
2022-08-05T06:54:02.873Z,1008.42
2022-08-05T06:54:38.366Z,1008.39
2022-08-05T06:55:13.894Z,1008.40
2022-08-05T06:55:49.323Z,1008.42
2022-08-05T06:56:25.769Z,1008.39
2022-08-05T06:57:56.795Z,1008.41
2022-08-05T06:57:58.011Z,1008.38
2022-08-05T06:58:29.109Z,1008.42
2022-08-05T06:58:46.855Z,1008.41
2022-08-05T06:59:20.812Z,1008.38
2022-08-05T06:59:58.297Z,1008.43
2022-08-05T07:00:31.247Z,1008.46
2022-08-05T07:01:06.714Z,1008.44
2022-08-05T07:01:42.290Z,1008.49
2022-08-05T07:02:17.657Z,1008.50
2022-08-05T07:02:53.666Z,1008.51
2022-08-05T07:03:27.936Z,1008.53
2022-08-05T07:04:03.149Z,1008.50
2022-08-05T07:04:38.324Z,1008.50
2022-08-05T07:05:14.189Z,1008.51
2022-08-05T07:05:48.927Z,1008.52
2022-08-05T07:06:24.328Z,1008.56
2022-08-05T07:06:59.351Z,1008.52